createdAt,value
2022-09-20T00:01:10.627Z,84.33
2022-09-20T00:03:43.366Z,82.49
2022-09-20T00:06:16.435Z,82.52
2022-09-20T00:08:44.273Z,83.73
2022-09-20T00:11:18.493Z,83.23
2022-09-20T00:13:47.619Z,83.39
2022-09-20T00:16:19.001Z,84.12
2022-09-20T00:18:50.775Z,83.62
2022-09-20T00:21:20.459Z,83.66
2022-09-20T00:23:47.869Z,83.64
2022-09-20T00:26:15.550Z,83.23
2022-09-20T00:28:44.096Z,85.03
2022-09-20T00:31:12.033Z,84.34
2022-09-20T00:33:58.151Z,84.79
2022-09-20T00:36:27.295Z,85.01
2022-09-20T00:38:58.748Z,86.60
2022-09-20T00:41:26.787Z,86.02
2022-09-20T00:43:54.778Z,85.86
2022-09-20T00:46:34.351Z,85.48
2022-09-20T00:49:11.843Z,86.25
2022-09-20T00:51:43.143Z,86.75
2022-09-20T00:54:18.193Z,85.56
2022-09-20T00:56:48.576Z,87.14
2022-09-20T00:59:19.024Z,87.61
2022-09-20T01:01:52.363Z,87.74
2022-09-20T01:04:22.726Z,87.01
2022-09-20T01:06:52.449Z,86.24
2022-09-20T01:09:19.643Z,85.81
2022-09-20T01:11:47.822Z,86.31
2022-09-20T01:14:17.128Z,86.10
2022-09-20T01:16:44.760Z,85.76
2022-09-20T01:19:25.261Z,86.07
2022-09-20T01:21:53.707Z,86.01
2022-09-20T01:24:36.476Z,85.50
2022-09-20T01:27:09.647Z,85.60
2022-09-20T01:29:54.782Z,85.90
2022-09-20T01:32:33.043Z,85.70
2022-09-20T01:35:01.323Z,85.73
2022-09-20T01:37:47.378Z,86.59
2022-09-20T01:40:27.967Z,86.52
2022-09-20T01:43:18.296Z,86.78
2022-09-20T01:45:49.538Z,87.15
2022-09-20T01:48:38.658Z,86.62
2022-09-20T01:51:11.608Z,87.31
2022-09-20T01:54:09.561Z,87.84
2022-09-20T01:56:58.975Z,86.72
2022-09-20T01:59:58.393Z,86.51
2022-09-20T02:02:42.854Z,87.01
2022-09-20T02:05:38.988Z,86.18
2022-09-20T02:08:34.505Z,85.04
2022-09-20T02:11:20.736Z,84.63
2022-09-20T02:13:58.032Z,84.26
2022-09-20T02:16:57.034Z,84.06
2022-09-20T02:19:50.476Z,84.65
2022-09-20T02:22:42.492Z,86.04
2022-09-20T02:25:24.693Z,86.70
2022-09-20T02:28:12.868Z,86.94
2022-09-20T02:30:42.663Z,86.38
2022-09-20T02:33:18.851Z,87.39
2022-09-20T02:35:54.849Z,88.01
2022-09-20T02:38:41.670Z,87.53
2022-09-20T02:41:41.579Z,87.01
2022-09-20T02:44:26.674Z,86.65
2022-09-20T02:47:07.091Z,88.01
2022-09-20T02:49:53.066Z,88.45
2022-09-20T02:52:38.779Z,88.91
2022-09-20T02:55:11.786Z,88.66
2022-09-20T02:57:52.020Z,88.69
2022-09-20T03:00:25.916Z,87.92
2022-09-20T03:03:24.000Z,87.50
2022-09-20T03:05:56.355Z,87.31
2022-09-20T03:08:26.268Z,87.35
2022-09-20T03:11:46.158Z,86.85
2022-09-20T03:14:36.516Z,86.44
2022-09-20T03:17:15.643Z,86.95
2022-09-20T03:20:10.574Z,86.62
2022-09-20T03:23:33.001Z,86.30
2022-09-20T03:26:24.482Z,86.94
2022-09-20T03:29:13.725Z,86.49
2022-09-20T03:32:03.350Z,86.07
2022-09-20T03:34:43.846Z,85.76
2022-09-20T03:37:36.432Z,85.55
2022-09-20T03:40:49.651Z,85.78
2022-09-20T03:43:33.342Z,86.08
2022-09-20T03:46:39.642Z,86.06
2022-09-20T03:49:25.860Z,86.22
2022-09-20T03:52:28.459Z,86.32
2022-09-20T03:55:46.481Z,86.59
2022-09-20T03:58:31.060Z,86.82
2022-09-20T04:01:07.288Z,87.44
2022-09-20T04:03:53.692Z,87.80
2022-09-20T04:06:55.892Z,87.71
2022-09-20T04:09:38.143Z,88.24
2022-09-20T04:12:14.665Z,88.93
2022-09-20T04:15:00.325Z,88.53
2022-09-20T04:17:47.549Z,88.40
2022-09-20T04:20:31.804Z,89.48
2022-09-20T04:23:09.045Z,89.52
2022-09-20T04:25:44.111Z,89.30
2022-09-20T04:28:27.124Z,87.38
2022-09-20T04:31:02.780Z,87.49
2022-09-20T04:33:41.322Z,88.26
2022-09-20T04:36:29.627Z,87.77
2022-09-20T04:39:23.484Z,87.71
2022-09-20T04:42:30.100Z,87.64
2022-09-20T04:45:31.102Z,88.38
2022-09-20T04:48:31.608Z,87.63
2022-09-20T04:51:36.114Z,88.47
2022-09-20T04:54:21.503Z,88.76
2022-09-20T04:57:07.084Z,90.25
2022-09-20T04:59:49.279Z,90.13
2022-09-20T05:02:50.496Z,90.50
2022-09-20T05:05:35.836Z,90.41
2022-09-20T05:08:27.780Z,90.32
2022-09-20T05:11:15.526Z,90.75
2022-09-20T05:14:07.605Z,90.83
2022-09-20T05:17:11.974Z,91.50
2022-09-20T05:20:03.179Z,92.47
2022-09-20T05:22:31.343Z,92.34
2022-09-20T05:25:20.180Z,92.69
2022-09-20T05:28:24.585Z,92.83
2022-09-20T05:31:01.616Z,92.60
2022-09-20T05:33:37.802Z,92.62
2022-09-20T05:36:13.353Z,93.16
2022-09-20T05:38:41.027Z,92.43
2022-09-20T05:41:18.915Z,91.77
2022-09-20T05:44:03.505Z,90.32
2022-09-20T05:46:59.150Z,89.94
2022-09-20T05:49:44.979Z,94.86
2022-09-20T05:52:43.084Z,81.94
2022-09-20T05:55:19.800Z,75.39
2022-09-20T05:58:00.668Z,70.97
2022-09-20T06:00:38.572Z,66.23
2022-09-20T06:03:18.823Z,74.13
2022-09-20T06:06:04.098Z,78.20
2022-09-20T06:08:50.176Z,80.17
2022-09-20T06:11:29.636Z,80.54
2022-09-20T06:14:11.838Z,82.74
2022-09-20T06:16:43.446Z,82.52
2022-09-20T06:19:41.836Z,83.30
2022-09-20T06:22:37.501Z,84.60
2022-09-20T06:25:19.287Z,83.87
2022-09-20T06:28:03.479Z,83.25
2022-09-20T06:30:39.548Z,84.26
2022-09-20T06:33:06.764Z,83.40
2022-09-20T06:35:52.400Z,84.76
2022-09-20T06:39:08.314Z,84.55
2022-09-20T06:41:37.108Z,84.19
2022-09-20T06:44:06.321Z,83.73
2022-09-20T06:46:36.156Z,85.04
2022-09-20T06:49:04.626Z,83.84
2022-09-20T06:51:38.117Z,84.92
2022-09-20T06:54:11.372Z,84.57
2022-09-20T06:56:38.891Z,84.39
2022-09-20T06:59:11.423Z,84.41
2022-09-20T07:01:38.853Z,83.88
2022-09-20T07:04:09.748Z,83.97
2022-09-20T07:06:37.295Z,83.28
2022-09-20T07:09:05.867Z,83.10
2022-09-20T07:11:35.106Z,82.76
2022-09-20T07:14:02.929Z,81.66
2022-09-20T07:16:30.240Z,80.83
2022-09-20T07:18:58.025Z,81.57
2022-09-20T07:21:25.447Z,80.67
2022-09-20T07:23:54.034Z,81.57
2022-09-20T07:26:26.949Z,79.53
2022-09-20T07:28:55.577Z,79.23
2022-09-20T07:31:25.678Z,79.66
2022-09-20T07:33:53.200Z,79.30
2022-09-20T07:36:20.592Z,79.23
2022-09-20T07:38:53.104Z,78.26
2022-09-20T07:41:22.763Z,78.14
2022-09-20T07:43:51.079Z,78.41
2022-09-20T07:46:22.172Z,77.21
2022-09-20T07:48:49.471Z,77.31
2022-09-20T07:51:16.690Z,76.41
2022-09-20T07:53:44.186Z,76.34
2022-09-20T07:56:16.261Z,74.74
2022-09-20T07:58:48.701Z,74.90
2022-09-20T08:01:20.988Z,74.81
2022-09-20T08:03:48.775Z,74.04
2022-09-20T08:06:16.403Z,73.61
2022-09-20T08:08:43.649Z,73.03
2022-09-20T08:11:12.762Z,72.20
2022-09-20T08:16:31.216Z,72.75
2022-09-20T08:19:02.716Z,71.78
2022-09-20T08:21:35.626Z,71.33
2022-09-20T08:24:04.154Z,70.61
2022-09-20T08:26:35.227Z,70.57
2022-09-20T08:29:05.905Z,70.10
2022-09-20T08:31:37.189Z,69.92
2022-09-20T08:34:06.708Z,70.58
2022-09-20T08:36:37.104Z,71.11
2022-09-20T08:42:00.270Z,69.17
2022-09-20T08:44:36.028Z,68.69
2022-09-20T08:47:26.920Z,66.61
2022-09-20T08:49:57.491Z,66.71
2022-09-20T08:52:39.117Z,66.47
2022-09-20T08:55:22.050Z,68.19
2022-09-20T08:57:55.489Z,68.32
2022-09-20T09:00:32.184Z,67.90
2022-09-20T09:03:10.645Z,66.31
2022-09-20T09:05:39.748Z,65.96
2022-09-20T09:08:39.198Z,65.95
2022-09-20T09:11:51.910Z,67.37
2022-09-20T09:18:03.268Z,65.55
2022-09-20T09:20:47.356Z,64.72
2022-09-20T09:23:27.590Z,65.46
2022-09-20T09:25:56.336Z,64.94
2022-09-20T09:28:26.024Z,63.97
2022-09-20T09:30:54.219Z,64.02
2022-09-20T09:33:26.525Z,63.21
2022-09-20T09:36:05.560Z,63.36
2022-09-20T09:38:38.428Z,63.27
2022-09-20T09:41:26.484Z,62.75
2022-09-20T09:44:31.422Z,60.84
2022-09-20T09:47:00.833Z,61.65
2022-09-20T09:49:34.122Z,62.19
2022-09-20T09:52:04.940Z,61.15
2022-09-20T09:54:50.824Z,61.40
2022-09-20T09:57:24.305Z,62.34
2022-09-20T10:00:00.945Z,62.14
2022-09-20T10:02:48.115Z,60.52
2022-09-20T10:05:30.752Z,62.00
2022-09-20T10:08:06.696Z,61.66
2022-09-20T10:10:41.454Z,59.96
2022-09-20T10:13:20.732Z,59.58
2022-09-20T10:16:12.999Z,58.95
2022-09-20T10:18:59.970Z,58.81
2022-09-20T10:21:41.982Z,59.43
2022-09-20T10:24:30.542Z,60.03
2022-09-20T10:27:19.277Z,59.74
2022-09-20T10:30:01.494Z,58.23
2022-09-20T10:32:51.743Z,57.20
2022-09-20T10:35:26.708Z,56.74
2022-09-20T10:38:11.519Z,57.20
2022-09-20T10:41:09.984Z,57.12
2022-09-20T10:44:08.716Z,55.18
2022-09-20T10:46:35.939Z,55.13
2022-09-20T10:49:34.579Z,56.39
2022-09-20T10:52:23.475Z,58.09
2022-09-20T10:55:04.176Z,59.08
2022-09-20T10:57:58.576Z,57.46
2022-09-20T11:00:36.202Z,58.21
2022-09-20T11:03:27.951Z,55.53
2022-09-20T11:06:15.975Z,54.02
2022-09-20T11:08:44.920Z,56.17
2022-09-20T11:11:38.346Z,55.16
2022-09-20T11:14:19.308Z,55.67
2022-09-20T11:16:56.075Z,52.48
2022-09-20T11:19:34.593Z,53.31
2022-09-20T11:22:09.864Z,52.32
2022-09-20T11:24:43.044Z,53.81
2022-09-20T11:27:18.934Z,51.48
2022-09-20T11:29:58.080Z,50.90
2022-09-20T11:32:30.947Z,51.43
2022-09-20T11:35:20.010Z,51.00
2022-09-20T11:37:57.796Z,52.64
2022-09-20T11:40:37.036Z,52.83
2022-09-20T11:43:08.164Z,51.02
2022-09-20T11:45:39.106Z,48.64
2022-09-20T11:48:47.519Z,50.58
2022-09-20T11:51:20.652Z,52.15
2022-09-20T11:54:06.401Z,52.18
2022-09-20T11:56:34.723Z,53.69
2022-09-20T11:59:05.059Z,52.67
2022-09-20T12:01:35.991Z,51.94
2022-09-20T12:04:35.324Z,48.30
2022-09-20T12:07:24.769Z,49.74
2022-09-20T12:10:19.982Z,49.24
2022-09-20T12:12:51.136Z,48.79
2022-09-20T12:15:21.769Z,49.83
2022-09-20T12:17:49.730Z,48.11
2022-09-20T12:20:35.523Z,48.82
2022-09-20T12:23:42.907Z,46.16
2022-09-20T12:26:13.338Z,45.87
2022-09-20T12:28:50.011Z,46.26
2022-09-20T12:31:29.517Z,46.28
2022-09-20T12:34:13.428Z,47.57
2022-09-20T12:36:43.233Z,47.01
2022-09-20T12:39:17.522Z,45.93
2022-09-20T12:41:46.395Z,45.94
2022-09-20T12:44:32.062Z,46.56
2022-09-20T12:47:06.051Z,46.86
2022-09-20T12:50:06.987Z,47.56
2022-09-20T12:52:53.211Z,45.20
2022-09-20T12:55:27.005Z,45.14
2022-09-20T12:58:13.680Z,44.70
2022-09-20T13:00:57.573Z,44.14
2022-09-20T13:03:28.624Z,44.17
2022-09-20T13:06:05.971Z,42.77
2022-09-20T13:08:42.905Z,42.80
2022-09-20T13:11:31.295Z,43.51
2022-09-20T13:14:08.332Z,39.80
2022-09-20T13:16:53.959Z,43.42
2022-09-20T13:19:29.641Z,41.40
2022-09-20T13:21:58.799Z,41.65
2022-09-20T13:24:29.060Z,40.61
2022-09-20T13:27:03.313Z,40.01
2022-09-20T13:29:41.332Z,40.91
2022-09-20T13:32:29.307Z,41.61
2022-09-20T13:35:15.019Z,40.90
2022-09-20T13:37:45.090Z,39.88
2022-09-20T13:40:19.561Z,39.97
2022-09-20T13:42:49.218Z,38.34
2022-09-20T13:45:18.398Z,39.08
2022-09-20T13:47:50.503Z,39.97
2022-09-20T13:50:24.291Z,40.61
2022-09-20T13:52:55.355Z,39.78
2022-09-20T13:55:30.193Z,40.52
2022-09-20T13:58:02.901Z,37.98
2022-09-20T14:00:32.156Z,37.61
2022-09-20T14:02:59.615Z,38.08
2022-09-20T14:05:30.053Z,41.96
2022-09-20T14:08:00.676Z,42.37
2022-09-20T14:10:37.147Z,41.19
2022-09-20T14:13:12.751Z,41.42
2022-09-20T14:15:46.413Z,44.81
2022-09-20T14:18:18.231Z,41.75
2022-09-20T14:20:46.452Z,44.69
2022-09-20T14:23:27.397Z,43.44
2022-09-20T14:26:16.590Z,42.11
2022-09-20T14:28:44.768Z,42.01
2022-09-20T14:31:13.948Z,42.38
2022-09-20T14:33:44.435Z,40.33
2022-09-20T14:36:17.859Z,40.43
2022-09-20T14:38:47.580Z,41.16
2022-09-20T14:41:25.883Z,42.77
2022-09-20T14:43:58.812Z,41.37
2022-09-20T14:46:38.711Z,40.24
2022-09-20T14:49:43.412Z,37.76
2022-09-20T14:52:25.441Z,40.46
2022-09-20T14:55:01.461Z,41.71
2022-09-20T14:57:29.910Z,39.60
2022-09-20T14:59:57.487Z,41.08
2022-09-20T15:02:25.762Z,41.79
2022-09-20T15:04:56.291Z,38.97
2022-09-20T15:07:23.703Z,39.35
2022-09-20T15:09:50.898Z,37.95
2022-09-20T15:12:20.667Z,38.88
2022-09-20T15:14:48.679Z,40.52
2022-09-20T15:17:18.590Z,39.89
2022-09-20T15:19:47.580Z,38.18
2022-09-20T15:22:15.302Z,40.39
2022-09-20T15:24:42.952Z,39.85
2022-09-20T15:27:12.465Z,40.51
2022-09-20T15:29:40.044Z,41.28
2022-09-20T15:32:10.420Z,42.05
2022-09-20T15:34:38.218Z,42.21
2022-09-20T15:37:05.447Z,43.47
2022-09-20T15:39:32.675Z,42.21
2022-09-20T15:42:14.200Z,43.75
2022-09-20T15:44:41.602Z,42.21
2022-09-20T15:47:12.849Z,42.78
2022-09-20T15:49:43.463Z,42.99
2022-09-20T15:52:11.421Z,43.01
2022-09-20T15:54:38.735Z,43.02
2022-09-20T15:57:05.987Z,44.33
2022-09-20T15:59:34.389Z,44.97
2022-09-20T16:02:02.426Z,44.55
2022-09-20T16:04:30.042Z,43.96
2022-09-20T16:06:57.308Z,45.03
2022-09-20T16:09:24.522Z,45.17
2022-09-20T16:11:51.837Z,44.66
2022-09-20T16:14:19.614Z,44.34
2022-09-20T16:16:46.867Z,44.71
2022-09-20T16:19:23.895Z,45.36
2022-09-20T16:21:59.215Z,47.36
2022-09-20T16:24:29.287Z,46.40
2022-09-20T16:26:58.014Z,45.80
2022-09-20T16:29:26.073Z,45.58
2022-09-20T16:31:54.330Z,45.45
2022-09-20T16:34:22.933Z,46.11
2022-09-20T16:36:53.111Z,47.68
2022-09-20T16:39:27.524Z,48.41
2022-09-20T16:41:57.277Z,49.49
2022-09-20T16:44:24.627Z,50.02
2022-09-20T16:46:51.856Z,50.60
2022-09-20T16:49:19.086Z,51.61
2022-09-20T16:51:47.019Z,52.71
2022-09-20T16:54:15.915Z,52.11
2022-09-20T16:56:48.388Z,52.59
2022-09-20T16:59:23.680Z,52.20
2022-09-20T17:01:51.266Z,52.53
2022-09-20T17:04:20.177Z,52.75
2022-09-20T17:06:48.926Z,52.30
2022-09-20T17:09:17.011Z,53.34
2022-09-20T17:11:47.332Z,53.90
2022-09-20T17:14:17.115Z,54.45
2022-09-20T17:16:48.456Z,54.42
2022-09-20T17:19:18.574Z,54.79
2022-09-20T17:21:50.878Z,55.25
2022-09-20T17:24:20.447Z,55.78
2022-09-20T17:26:48.975Z,56.49
2022-09-20T17:29:17.934Z,57.19
2022-09-20T17:31:53.206Z,57.56
2022-09-20T17:34:21.865Z,57.92
2022-09-20T17:36:50.483Z,58.50
2022-09-20T17:39:18.484Z,59.10
2022-09-20T17:41:47.981Z,59.30
2022-09-20T17:44:16.018Z,58.88
2022-09-20T17:46:45.312Z,58.48
2022-09-20T17:49:14.903Z,58.63
2022-09-20T17:51:44.963Z,59.09
2022-09-20T17:54:13.985Z,59.42
2022-09-20T17:56:47.155Z,60.00
2022-09-20T17:59:18.106Z,60.05
2022-09-20T18:01:47.538Z,59.76
2022-09-20T18:04:14.816Z,59.67
2022-09-20T18:06:46.331Z,60.00
2022-09-20T18:09:18.630Z,59.75
2022-09-20T18:11:49.638Z,59.60
2022-09-20T18:14:19.096Z,59.57
2022-09-20T18:16:47.015Z,60.14
2022-09-20T18:19:16.033Z,60.30
2022-09-20T18:21:44.086Z,60.77
2022-09-20T18:24:12.207Z,60.91
2022-09-20T18:26:39.920Z,61.53
2022-09-20T18:29:12.870Z,61.25
2022-09-20T18:31:45.491Z,61.42
2022-09-20T18:34:17.798Z,61.29
2022-09-20T18:36:51.555Z,61.80
2022-09-20T18:39:26.155Z,61.96
2022-09-20T18:41:53.467Z,62.30
2022-09-20T18:44:23.903Z,62.29
2022-09-20T18:46:55.120Z,62.72
2022-09-20T18:49:22.552Z,62.78
2022-09-20T18:51:50.490Z,62.70
2022-09-20T18:54:18.999Z,62.72
2022-09-20T18:56:48.898Z,63.08
2022-09-20T18:59:21.815Z,63.33
2022-09-20T19:02:01.580Z,63.34
2022-09-20T19:05:09.812Z,63.36
2022-09-20T19:07:45.306Z,63.41
2022-09-20T19:10:27.974Z,63.62
2022-09-20T19:13:19.974Z,63.88
2022-09-20T19:20:35.079Z,64.31
2022-09-20T19:23:17.769Z,64.36
2022-09-20T19:25:48.262Z,64.69
2022-09-20T19:28:16.946Z,65.17
2022-09-20T19:30:45.540Z,65.30
2022-09-20T19:33:17.242Z,65.53
2022-09-20T19:35:50.428Z,66.31
2022-09-20T19:38:23.858Z,66.26
2022-09-20T19:40:59.575Z,66.22
2022-09-20T19:43:49.502Z,67.34
2022-09-20T19:46:35.552Z,67.21
2022-09-20T19:49:14.832Z,67.35
2022-09-20T19:51:44.401Z,67.99
2022-09-20T19:54:14.963Z,67.88
2022-09-20T19:56:57.271Z,67.99
2022-09-20T19:59:26.626Z,69.25
2022-09-20T20:01:54.800Z,68.45
2022-09-20T20:04:22.269Z,68.45
2022-09-20T20:07:29.152Z,68.71
2022-09-20T20:10:41.923Z,68.57
2022-09-20T20:13:52.642Z,69.10
2022-09-20T20:16:46.886Z,69.02
2022-09-20T20:19:32.551Z,69.19
2022-09-20T20:22:21.912Z,69.53
2022-09-20T20:24:53.801Z,69.58
2022-09-20T20:27:21.295Z,70.43
2022-09-20T20:29:49.473Z,69.98
2022-09-20T20:32:17.239Z,70.39
2022-09-20T20:34:44.424Z,70.28
2022-09-20T20:37:11.596Z,70.41
2022-09-20T20:39:39.019Z,70.43
2022-09-20T20:42:06.455Z,70.78
2022-09-20T20:44:37.288Z,71.17
2022-09-20T20:47:06.520Z,71.01
2022-09-20T20:49:34.040Z,70.80
2022-09-20T20:52:04.755Z,71.46
2022-09-20T20:54:32.567Z,71.31
2022-09-20T20:56:59.873Z,71.70
2022-09-20T20:59:27.062Z,71.86
2022-09-20T21:01:54.298Z,70.99
2022-09-20T21:04:21.926Z,70.45
2022-09-20T21:06:50.348Z,71.68
2022-09-20T21:09:17.585Z,71.88
2022-09-20T21:11:45.817Z,71.41
2022-09-20T21:14:13.159Z,70.74
2022-09-20T21:16:43.281Z,71.92
2022-09-20T21:19:14.934Z,71.44
2022-09-20T21:21:44.175Z,72.14
2022-09-20T21:24:14.703Z,72.15
2022-09-20T21:26:42.075Z,72.49
2022-09-20T21:29:14.447Z,73.04
2022-09-20T21:31:44.243Z,72.31
2022-09-20T21:34:13.407Z,72.29
2022-09-20T21:36:41.562Z,73.50
2022-09-20T21:39:09.009Z,73.86
2022-09-20T21:41:38.208Z,73.26
2022-09-20T21:44:07.416Z,73.77
2022-09-20T21:46:39.183Z,75.03
2022-09-20T21:49:11.820Z,76.59
2022-09-20T21:51:41.409Z,78.28
2022-09-20T21:54:09.446Z,78.98
2022-09-20T21:56:37.962Z,77.21
2022-09-20T21:59:06.225Z,76.72
2022-09-20T22:01:35.935Z,76.38
2022-09-20T22:04:08.135Z,75.68
2022-09-20T22:06:41.430Z,75.38
2022-09-20T22:09:11.642Z,76.13
2022-09-20T22:11:42.238Z,76.01
2022-09-20T22:14:10.683Z,76.56
2022-09-20T22:16:40.228Z,77.03
2022-09-20T22:19:10.742Z,76.57
2022-09-20T22:21:40.656Z,77.91
2022-09-20T22:24:09.633Z,78.00
2022-09-20T22:26:39.847Z,78.14
2022-09-20T22:29:07.661Z,77.77
2022-09-20T22:31:39.004Z,78.48
2022-09-20T22:34:07.390Z,78.55
2022-09-20T22:36:37.806Z,78.18
2022-09-20T22:39:09.710Z,77.98
2022-09-20T22:41:38.666Z,78.20
2022-09-20T22:44:06.217Z,78.18
2022-09-20T22:46:34.491Z,78.83
2022-09-20T22:49:05.089Z,78.84
2022-09-20T22:51:33.399Z,79.05
2022-09-20T22:54:05.423Z,78.57
2022-09-20T22:56:33.080Z,78.97
2022-09-20T22:59:06.287Z,78.61
2022-09-20T23:01:36.291Z,80.60
2022-09-20T23:04:08.109Z,81.20
2022-09-20T23:06:44.367Z,82.09
2022-09-20T23:09:13.235Z,82.23
2022-09-20T23:11:42.665Z,81.76
2022-09-20T23:14:12.891Z,81.87
2022-09-20T23:16:40.224Z,82.39
2022-09-20T23:19:08.836Z,81.93
2022-09-20T23:21:38.404Z,83.02
2022-09-20T23:24:08.669Z,82.26
2022-09-20T23:26:37.878Z,81.83
2022-09-20T23:29:10.979Z,81.64
2022-09-20T23:31:39.998Z,81.38
2022-09-20T23:34:08.050Z,80.79
2022-09-20T23:36:38.203Z,83.27
2022-09-20T23:39:07.106Z,82.66
2022-09-20T23:41:36.574Z,82.20
2022-09-20T23:44:06.654Z,81.64
2022-09-20T23:46:34.416Z,81.45
2022-09-20T23:49:02.245Z,80.88
2022-09-20T23:51:30.689Z,80.60
2022-09-20T23:53:58.502Z,80.57
2022-09-20T23:56:27.454Z,81.26
2022-09-20T23:58:54.740Z,83.03
